sensor_id;sensor_type;location;lat;lon;timestamp;temperature;humidity
40077;DHT22;25777;47.824;18.982;2023-12-29T00:00:57;1.40;99.90
40077;DHT22;25777;47.824;18.982;2023-12-29T00:03:23;1.40;99.90
40077;DHT22;25777;47.824;18.982;2023-12-29T00:05:48;1.40;99.90
40077;DHT22;25777;47.824;18.982;2023-12-29T00:08:14;1.40;99.90
40077;DHT22;25777;47.824;18.982;2023-12-29T00:10:40;1.40;99.90
40077;DHT22;25777;47.824;18.982;2023-12-29T00:13:06;1.40;99.90
40077;DHT22;25777;47.824;18.982;2023-12-29T00:15:32;1.40;99.90
40077;DHT22;25777;47.824;18.982;2023-12-29T00:17:58;1.40;99.90
40077;DHT22;25777;47.824;18.982;2023-12-29T00:20:24;1.40;99.90
40077;DHT22;25777;47.824;18.982;2023-12-29T00:22:50;1.40;99.90
40077;DHT22;25777;47.824;18.982;2023-12-29T00:25:16;1.40;99.90
40077;DHT22;25777;47.824;18.982;2023-12-29T00:27:41;1.50;99.90
40077;DHT22;25777;47.824;18.982;2023-12-29T00:30:08;1.50;99.90
40077;DHT22;25777;47.824;18.982;2023-12-29T00:32:34;1.50;99.90
40077;DHT22;25777;47.824;18.982;2023-12-29T00:35:00;1.50;99.90
40077;DHT22;25777;47.824;18.982;2023-12-29T00:37:26;1.40;99.90
40077;DHT22;25777;47.824;18.982;2023-12-29T00:39:52;1.40;99.90
40077;DHT22;25777;47.824;18.982;2023-12-29T00:42:18;1.40;99.90
40077;DHT22;25777;47.824;18.982;2023-12-29T00:44:44;1.50;99.90
40077;DHT22;25777;47.824;18.982;2023-12-29T00:47:10;1.40;99.90
40077;DHT22;25777;47.824;18.982;2023-12-29T00:49:38;1.40;99.90
40077;DHT22;25777;47.824;18.982;2023-12-29T00:52:05;1.50;99.90
40077;DHT22;25777;47.824;18.982;2023-12-29T00:54:31;1.40;99.90
40077;DHT22;25777;47.824;18.982;2023-12-29T00:56:57;1.40;99.90
40077;DHT22;25777;47.824;18.982;2023-12-29T00:59:23;1.40;99.90
40077;DHT22;25777;47.824;18.982;2023-12-29T01:01:48;1.50;99.90
40077;DHT22;25777;47.824;18.982;2023-12-29T01:04:14;1.40;99.90
40077;DHT22;25777;47.824;18.982;2023-12-29T01:06:40;1.40;99.90
40077;DHT22;25777;47.824;18.982;2023-12-29T01:09:06;1.50;99.90
40077;DHT22;25777;47.824;18.982;2023-12-29T01:11:34;1.50;99.90
40077;DHT22;25777;47.824;18.982;2023-12-29T01:14:00;1.50;99.90
40077;DHT22;25777;47.824;18.982;2023-12-29T01:16:26;1.50;99.90
40077;DHT22;25777;47.824;18.982;2023-12-29T01:18:52;1.50;99.90
40077;DHT22;25777;47.824;18.982;2023-12-29T01:21:18;1.50;99.90
40077;DHT22;25777;47.824;18.982;2023-12-29T01:23:44;1.50;99.90
40077;DHT22;25777;47.824;18.982;2023-12-29T01:26:10;1.50;99.90
40077;DHT22;25777;47.824;18.982;2023-12-29T01:28:36;1.50;99.90
40077;DHT22;25777;47.824;18.982;2023-12-29T01:31:01;1.50;99.90
40077;DHT22;25777;47.824;18.982;2023-12-29T01:33:27;1.50;99.90
40077;DHT22;25777;47.824;18.982;2023-12-29T01:35:53;1.50;99.90
40077;DHT22;25777;47.824;18.982;2023-12-29T01:38:19;1.50;99.90
40077;DHT22;25777;47.824;18.982;2023-12-29T01:40:45;1.50;99.90
40077;DHT22;25777;47.824;18.982;2023-12-29T01:43:12;1.50;99.90
40077;DHT22;25777;47.824;18.982;2023-12-29T01:45:38;1.50;99.90
40077;DHT22;25777;47.824;18.982;2023-12-29T01:48:04;1.50;99.90
40077;DHT22;25777;47.824;18.982;2023-12-29T01:50:30;1.50;99.90
40077;DHT22;25777;47.824;18.982;2023-12-29T01:52:57;1.50;99.90
40077;DHT22;25777;47.824;18.982;2023-12-29T01:55:25;1.50;99.90
40077;DHT22;25777;47.824;18.982;2023-12-29T01:57:51;1.50;99.90
40077;DHT22;25777;47.824;18.982;2023-12-29T02:00:18;1.50;99.90
40077;DHT22;25777;47.824;18.982;2023-12-29T02:02:46;1.50;99.90
40077;DHT22;25777;47.824;18.982;2023-12-29T02:05:16;1.50;99.90
40077;DHT22;25777;47.824;18.982;2023-12-29T02:07:43;1.50;99.90
40077;DHT22;25777;47.824;18.982;2023-12-29T02:10:09;1.50;99.90
40077;DHT22;25777;47.824;18.982;2023-12-29T02:12:41;1.50;99.90
40077;DHT22;25777;47.824;18.982;2023-12-29T02:15:07;1.50;99.90
40077;DHT22;25777;47.824;18.982;2023-12-29T02:17:59;1.50;99.90
40077;DHT22;25777;47.824;18.982;2023-12-29T02:20:27;1.50;99.90
40077;DHT22;25777;47.824;18.982;2023-12-29T02:22:53;1.50;99.90
40077;DHT22;25777;47.824;18.982;2023-12-29T02:25:20;1.50;99.90
40077;DHT22;25777;47.824;18.982;2023-12-29T02:27:48;1.50;99.90
40077;DHT22;25777;47.824;18.982;2023-12-29T02:30:20;1.50;99.90
40077;DHT22;25777;47.824;18.982;2023-12-29T02:32:47;1.50;99.90
40077;DHT22;25777;47.824;18.982;2023-12-29T02:35:19;1.50;99.90
40077;DHT22;25777;47.824;18.982;2023-12-29T02:37:46;1.50;99.90
40077;DHT22;25777;47.824;18.982;2023-12-29T02:40:14;1.50;99.90
40077;DHT22;25777;47.824;18.982;2023-12-29T02:42:45;1.50;99.90
40077;DHT22;25777;47.824;18.982;2023-12-29T02:45:11;1.50;99.90
40077;DHT22;25777;47.824;18.982;2023-12-29T02:47:37;1.50;99.90
40077;DHT22;25777;47.824;18.982;2023-12-29T02:50:03;1.50;99.90
40077;DHT22;25777;47.824;18.982;2023-12-29T02:52:29;1.50;99.90
40077;DHT22;25777;47.824;18.982;2023-12-29T02:54:55;1.50;99.90
40077;DHT22;25777;47.824;18.982;2023-12-29T02:57:21;1.50;99.90
40077;DHT22;25777;47.824;18.982;2023-12-29T02:59:46;1.50;99.90
40077;DHT22;25777;47.824;18.982;2023-12-29T03:02:12;1.50;99.90
40077;DHT22;25777;47.824;18.982;2023-12-29T03:04:38;1.50;99.90
40077;DHT22;25777;47.824;18.982;2023-12-29T03:07:04;1.50;99.90
40077;DHT22;25777;47.824;18.982;2023-12-29T03:09:30;1.50;99.90
40077;DHT22;25777;47.824;18.982;2023-12-29T03:11:56;1.50;99.90
40077;DHT22;25777;47.824;18.982;2023-12-29T03:14:21;1.50;99.90
40077;DHT22;25777;47.824;18.982;2023-12-29T03:16:47;1.50;99.90
40077;DHT22;25777;47.824;18.982;2023-12-29T03:19:13;1.50;99.90
40077;DHT22;25777;47.824;18.982;2023-12-29T03:21:39;1.50;99.90
40077;DHT22;25777;47.824;18.982;2023-12-29T03:24:05;1.50;99.90
40077;DHT22;25777;47.824;18.982;2023-12-29T03:26:30;1.50;99.90
40077;DHT22;25777;47.824;18.982;2023-12-29T03:28:56;1.50;99.90
40077;DHT22;25777;47.824;18.982;2023-12-29T03:31:22;1.60;99.90
40077;DHT22;25777;47.824;18.982;2023-12-29T03:33:48;1.60;99.90
40077;DHT22;25777;47.824;18.982;2023-12-29T03:36:14;1.60;99.90
40077;DHT22;25777;47.824;18.982;2023-12-29T03:38:58;1.60;99.90
40077;DHT22;25777;47.824;18.982;2023-12-29T03:41:24;1.60;99.90
40077;DHT22;25777;47.824;18.982;2023-12-29T03:43:49;1.60;99.90
40077;DHT22;25777;47.824;18.982;2023-12-29T03:46:24;1.60;99.90
40077;DHT22;25777;47.824;18.982;2023-12-29T03:48:51;1.60;99.90
40077;DHT22;25777;47.824;18.982;2023-12-29T03:51:18;1.60;99.90
40077;DHT22;25777;47.824;18.982;2023-12-29T03:53:44;1.60;99.90
40077;DHT22;25777;47.824;18.982;2023-12-29T03:56:17;1.60;99.90
40077;DHT22;25777;47.824;18.982;2023-12-29T03:58:43;1.60;99.90
40077;DHT22;25777;47.824;18.982;2023-12-29T04:01:10;1.60;99.90
40077;DHT22;25777;47.824;18.982;2023-12-29T04:03:37;1.60;99.90
40077;DHT22;25777;47.824;18.982;2023-12-29T04:06:03;1.60;99.90
40077;DHT22;25777;47.824;18.982;2023-12-29T04:08:29;1.70;99.90
40077;DHT22;25777;47.824;18.982;2023-12-29T04:10:55;1.70;99.90
40077;DHT22;25777;47.824;18.982;2023-12-29T04:13:21;1.80;99.90
40077;DHT22;25777;47.824;18.982;2023-12-29T04:15:47;1.70;99.90
40077;DHT22;25777;47.824;18.982;2023-12-29T04:18:12;1.80;99.90
40077;DHT22;25777;47.824;18.982;2023-12-29T04:20:38;1.80;99.90
40077;DHT22;25777;47.824;18.982;2023-12-29T04:23:06;1.80;99.90
40077;DHT22;25777;47.824;18.982;2023-12-29T04:25:33;1.80;99.90
40077;DHT22;25777;47.824;18.982;2023-12-29T04:27:59;1.80;99.90
40077;DHT22;25777;47.824;18.982;2023-12-29T04:30:25;1.80;99.90
40077;DHT22;25777;47.824;18.982;2023-12-29T04:32:51;1.80;99.90
40077;DHT22;25777;47.824;18.982;2023-12-29T04:35:16;1.80;99.90
40077;DHT22;25777;47.824;18.982;2023-12-29T04:37:44;1.80;99.90
40077;DHT22;25777;47.824;18.982;2023-12-29T04:40:11;1.80;99.90
40077;DHT22;25777;47.824;18.982;2023-12-29T04:42:37;1.80;99.90
40077;DHT22;25777;47.824;18.982;2023-12-29T04:45:04;1.80;99.90
40077;DHT22;25777;47.824;18.982;2023-12-29T04:47:30;1.80;99.90
40077;DHT22;25777;47.824;18.982;2023-12-29T04:49:56;1.80;99.90
40077;DHT22;25777;47.824;18.982;2023-12-29T04:52:22;1.80;99.90
40077;DHT22;25777;47.824;18.982;2023-12-29T04:54:48;1.80;99.90
40077;DHT22;25777;47.824;18.982;2023-12-29T04:57:14;1.90;99.90
40077;DHT22;25777;47.824;18.982;2023-12-29T04:59:40;1.90;99.90
40077;DHT22;25777;47.824;18.982;2023-12-29T05:02:06;1.90;99.90
40077;DHT22;25777;47.824;18.982;2023-12-29T05:04:31;1.90;99.90
40077;DHT22;25777;47.824;18.982;2023-12-29T05:06:57;2.00;99.90
40077;DHT22;25777;47.824;18.982;2023-12-29T05:09:23;2.00;99.90
40077;DHT22;25777;47.824;18.982;2023-12-29T05:11:49;2.00;99.90
40077;DHT22;25777;47.824;18.982;2023-12-29T05:14:15;2.00;99.90
40077;DHT22;25777;47.824;18.982;2023-12-29T05:16:44;1.90;99.90
40077;DHT22;25777;47.824;18.982;2023-12-29T05:19:10;2.00;99.90
40077;DHT22;25777;47.824;18.982;2023-12-29T05:21:35;1.90;99.90
40077;DHT22;25777;47.824;18.982;2023-12-29T05:24:01;2.00;99.90
40077;DHT22;25777;47.824;18.982;2023-12-29T05:26:29;1.90;99.90
40077;DHT22;25777;47.824;18.982;2023-12-29T05:28:55;1.90;99.90
40077;DHT22;25777;47.824;18.982;2023-12-29T05:31:41;1.90;99.90
40077;DHT22;25777;47.824;18.982;2023-12-29T05:34:07;1.90;99.90
40077;DHT22;25777;47.824;18.982;2023-12-29T05:36:36;1.90;99.90
40077;DHT22;25777;47.824;18.982;2023-12-29T05:39:02;1.90;99.90
40077;DHT22;25777;47.824;18.982;2023-12-29T05:41:29;1.90;99.90
40077;DHT22;25777;47.824;18.982;2023-12-29T05:43:55;1.90;99.90
40077;DHT22;25777;47.824;18.982;2023-12-29T05:46:23;2.00;99.90
40077;DHT22;25777;47.824;18.982;2023-12-29T05:48:49;2.00;99.90
40077;DHT22;25777;47.824;18.982;2023-12-29T05:51:16;1.90;99.90
40077;DHT22;25777;47.824;18.982;2023-12-29T05:53:43;1.90;99.90
40077;DHT22;25777;47.824;18.982;2023-12-29T05:56:13;2.00;99.90
40077;DHT22;25777;47.824;18.982;2023-12-29T05:58:43;1.90;99.90
40077;DHT22;25777;47.824;18.982;2023-12-29T06:01:09;2.00;99.90
40077;DHT22;25777;47.824;18.982;2023-12-29T06:03:35;2.00;99.90
40077;DHT22;25777;47.824;18.982;2023-12-29T06:06:01;2.00;99.90
40077;DHT22;25777;47.824;18.982;2023-12-29T06:08:27;2.00;99.90
40077;DHT22;25777;47.824;18.982;2023-12-29T06:10:53;2.00;99.90
40077;DHT22;25777;47.824;18.982;2023-12-29T06:13:18;2.00;99.90
40077;DHT22;25777;47.824;18.982;2023-12-29T06:15:44;2.00;99.90
40077;DHT22;25777;47.824;18.982;2023-12-29T06:18:10;2.00;99.90
40077;DHT22;25777;47.824;18.982;2023-12-29T06:20:36;2.00;99.90
40077;DHT22;25777;47.824;18.982;2023-12-29T06:23:02;2.00;99.90
40077;DHT22;25777;47.824;18.982;2023-12-29T06:25:28;2.00;99.90
40077;DHT22;25777;47.824;18.982;2023-12-29T06:27:54;2.10;99.90
40077;DHT22;25777;47.824;18.982;2023-12-29T06:30:20;2.00;99.90
40077;DHT22;25777;47.824;18.982;2023-12-29T06:32:46;2.10;99.90
40077;DHT22;25777;47.824;18.982;2023-12-29T06:35:12;2.10;99.90
40077;DHT22;25777;47.824;18.982;2023-12-29T06:37:39;2.00;99.90
40077;DHT22;25777;47.824;18.982;2023-12-29T06:40:09;2.10;99.90
40077;DHT22;25777;47.824;18.982;2023-12-29T06:42:35;2.10;99.90
40077;DHT22;25777;47.824;18.982;2023-12-29T06:45:00;2.10;99.90
40077;DHT22;25777;47.824;18.982;2023-12-29T06:47:30;2.10;99.90
40077;DHT22;25777;47.824;18.982;2023-12-29T06:49:56;2.10;99.90
40077;DHT22;25777;47.824;18.982;2023-12-29T06:52:23;2.10;99.90
40077;DHT22;25777;47.824;18.982;2023-12-29T06:54:48;2.10;99.90
40077;DHT22;25777;47.824;18.982;2023-12-29T06:57:14;2.00;99.90
40077;DHT22;25777;47.824;18.982;2023-12-29T06:59:42;2.10;99.90
40077;DHT22;25777;47.824;18.982;2023-12-29T07:02:08;2.10;99.90
40077;DHT22;25777;47.824;18.982;2023-12-29T07:04:33;2.10;99.90
40077;DHT22;25777;47.824;18.982;2023-12-29T07:07:00;2.20;99.90
40077;DHT22;25777;47.824;18.982;2023-12-29T07:09:27;2.20;99.90
40077;DHT22;25777;47.824;18.982;2023-12-29T07:11:53;2.20;99.90
40077;DHT22;25777;47.824;18.982;2023-12-29T07:14:19;2.20;99.90
40077;DHT22;25777;47.824;18.982;2023-12-29T07:16:45;2.20;99.90
40077;DHT22;25777;47.824;18.982;2023-12-29T07:19:11;2.30;99.90
40077;DHT22;25777;47.824;18.982;2023-12-29T07:21:37;2.20;99.90
40077;DHT22;25777;47.824;18.982;2023-12-29T07:24:02;2.20;99.90
40077;DHT22;25777;47.824;18.982;2023-12-29T07:26:28;2.20;99.90
40077;DHT22;25777;47.824;18.982;2023-12-29T07:28:54;2.20;99.90
40077;DHT22;25777;47.824;18.982;2023-12-29T07:31:21;2.20;99.90
40077;DHT22;25777;47.824;18.982;2023-12-29T07:33:47;2.20;99.90
40077;DHT22;25777;47.824;18.982;2023-12-29T07:36:13;2.20;99.90
40077;DHT22;25777;47.824;18.982;2023-12-29T07:38:38;2.20;99.90
40077;DHT22;25777;47.824;18.982;2023-12-29T07:41:04;2.30;99.90
40077;DHT22;25777;47.824;18.982;2023-12-29T07:43:31;2.30;99.90
40077;DHT22;25777;47.824;18.982;2023-12-29T07:45:57;2.30;99.90
40077;DHT22;25777;47.824;18.982;2023-12-29T07:48:23;2.30;99.90
40077;DHT22;25777;47.824;18.982;2023-12-29T07:50:49;2.30;99.90
40077;DHT22;25777;47.824;18.982;2023-12-29T07:53:15;2.30;99.90
40077;DHT22;25777;47.824;18.982;2023-12-29T07:55:42;2.30;99.90
40077;DHT22;25777;47.824;18.982;2023-12-29T07:58:09;2.40;99.90
40077;DHT22;25777;47.824;18.982;2023-12-29T08:00:36;2.40;99.90
40077;DHT22;25777;47.824;18.982;2023-12-29T08:03:02;2.50;99.90
40077;DHT22;25777;47.824;18.982;2023-12-29T08:05:28;2.60;99.90
40077;DHT22;25777;47.824;18.982;2023-12-29T08:07:54;2.60;99.90
40077;DHT22;25777;47.824;18.982;2023-12-29T08:10:20;2.60;99.90
40077;DHT22;25777;47.824;18.982;2023-12-29T08:12:46;2.70;99.90
40077;DHT22;25777;47.824;18.982;2023-12-29T08:15:12;2.60;99.90
40077;DHT22;25777;47.824;18.982;2023-12-29T08:17:38;2.60;99.90
40077;DHT22;25777;47.824;18.982;2023-12-29T08:20:04;2.60;99.90
40077;DHT22;25777;47.824;18.982;2023-12-29T08:22:31;2.60;99.90
40077;DHT22;25777;47.824;18.982;2023-12-29T08:24:58;2.70;99.90
40077;DHT22;25777;47.824;18.982;2023-12-29T08:27:24;2.70;99.90
40077;DHT22;25777;47.824;18.982;2023-12-29T08:29:54;2.60;99.90
40077;DHT22;25777;47.824;18.982;2023-12-29T08:32:19;2.60;99.90
40077;DHT22;25777;47.824;18.982;2023-12-29T08:34:46;2.50;99.90
40077;DHT22;25777;47.824;18.982;2023-12-29T08:37:12;2.50;99.90
40077;DHT22;25777;47.824;18.982;2023-12-29T08:39:38;2.60;99.90
40077;DHT22;25777;47.824;18.982;2023-12-29T08:42:04;2.50;99.90
40077;DHT22;25777;47.824;18.982;2023-12-29T08:44:29;2.50;99.90
40077;DHT22;25777;47.824;18.982;2023-12-29T08:46:55;2.70;99.90
40077;DHT22;25777;47.824;18.982;2023-12-29T08:49:21;2.50;99.90
40077;DHT22;25777;47.824;18.982;2023-12-29T08:51:47;2.60;99.90
40077;DHT22;25777;47.824;18.982;2023-12-29T08:54:13;2.70;99.90
40077;DHT22;25777;47.824;18.982;2023-12-29T08:56:39;2.70;99.90
40077;DHT22;25777;47.824;18.982;2023-12-29T08:59:05;2.70;99.90
40077;DHT22;25777;47.824;18.982;2023-12-29T09:01:31;2.70;99.90
40077;DHT22;25777;47.824;18.982;2023-12-29T09:03:56;2.70;99.90
40077;DHT22;25777;47.824;18.982;2023-12-29T09:06:22;2.80;99.90
40077;DHT22;25777;47.824;18.982;2023-12-29T09:08:48;2.80;99.90
40077;DHT22;25777;47.824;18.982;2023-12-29T09:11:14;2.90;99.90
40077;DHT22;25777;47.824;18.982;2023-12-29T09:13:40;2.70;99.90
40077;DHT22;25777;47.824;18.982;2023-12-29T09:16:06;2.70;99.90
40077;DHT22;25777;47.824;18.982;2023-12-29T09:18:32;2.70;99.90
40077;DHT22;25777;47.824;18.982;2023-12-29T09:20:57;2.70;99.90
40077;DHT22;25777;47.824;18.982;2023-12-29T09:23:23;2.70;99.90
40077;DHT22;25777;47.824;18.982;2023-12-29T09:25:49;3.00;99.90
40077;DHT22;25777;47.824;18.982;2023-12-29T09:28:15;3.10;99.90
40077;DHT22;25777;47.824;18.982;2023-12-29T09:30:41;3.10;99.90
40077;DHT22;25777;47.824;18.982;2023-12-29T09:33:07;3.10;99.90
40077;DHT22;25777;47.824;18.982;2023-12-29T09:35:32;3.20;99.90
40077;DHT22;25777;47.824;18.982;2023-12-29T09:37:58;3.30;99.90
40077;DHT22;25777;47.824;18.982;2023-12-29T09:40:25;3.30;99.90
40077;DHT22;25777;47.824;18.982;2023-12-29T09:42:52;3.10;99.90
40077;DHT22;25777;47.824;18.982;2023-12-29T09:45:23;3.00;99.90
40077;DHT22;25777;47.824;18.982;2023-12-29T09:47:51;2.90;99.90
40077;DHT22;25777;47.824;18.982;2023-12-29T09:50:19;2.80;99.90
40077;DHT22;25777;47.824;18.982;2023-12-29T09:52:48;2.80;99.90
40077;DHT22;25777;47.824;18.982;2023-12-29T09:55:15;3.00;99.90
40077;DHT22;25777;47.824;18.982;2023-12-29T09:57:41;3.00;99.90
40077;DHT22;25777;47.824;18.982;2023-12-29T10:00:11;2.90;99.90
40077;DHT22;25777;47.824;18.982;2023-12-29T10:02:37;2.80;99.90
40077;DHT22;25777;47.824;18.982;2023-12-29T10:05:04;2.90;99.90
40077;DHT22;25777;47.824;18.982;2023-12-29T10:07:35;2.80;99.90
40077;DHT22;25777;47.824;18.982;2023-12-29T10:10:05;2.70;99.90
40077;DHT22;25777;47.824;18.982;2023-12-29T10:12:32;2.80;99.90
40077;DHT22;25777;47.824;18.982;2023-12-29T10:20:36;2.60;99.90
40077;DHT22;25777;47.824;18.982;2023-12-29T10:23:11;2.60;99.90
40077;DHT22;25777;47.824;18.982;2023-12-29T10:25:39;2.60;99.90
40077;DHT22;25777;47.824;18.982;2023-12-29T10:28:06;2.50;99.90
40077;DHT22;25777;47.824;18.982;2023-12-29T10:30:32;2.50;99.90
40077;DHT22;25777;47.824;18.982;2023-12-29T10:32:58;2.50;99.90
40077;DHT22;25777;47.824;18.982;2023-12-29T10:35:29;2.60;99.90
40077;DHT22;25777;47.824;18.982;2023-12-29T10:38:12;2.70;99.90
40077;DHT22;25777;47.824;18.982;2023-12-29T10:40:38;2.70;99.90
40077;DHT22;25777;47.824;18.982;2023-12-29T10:43:04;2.80;99.90
40077;DHT22;25777;47.824;18.982;2023-12-29T10:45:33;2.80;99.90
40077;DHT22;25777;47.824;18.982;2023-12-29T10:48:00;2.90;99.90
40077;DHT22;25777;47.824;18.982;2023-12-29T10:50:26;2.90;99.90
40077;DHT22;25777;47.824;18.982;2023-12-29T10:53:14;3.00;99.90
40077;DHT22;25777;47.824;18.982;2023-12-29T10:55:40;3.00;99.90
40077;DHT22;25777;47.824;18.982;2023-12-29T10:58:07;3.00;99.90
40077;DHT22;25777;47.824;18.982;2023-12-29T11:00:32;3.20;99.90
40077;DHT22;25777;47.824;18.982;2023-12-29T11:02:58;3.50;99.90
40077;DHT22;25777;47.824;18.982;2023-12-29T11:05:26;3.50;99.90
40077;DHT22;25777;47.824;18.982;2023-12-29T11:07:54;3.50;99.90
40077;DHT22;25777;47.824;18.982;2023-12-29T11:10:23;3.40;99.90
40077;DHT22;25777;47.824;18.982;2023-12-29T11:12:49;3.40;99.90
40077;DHT22;25777;47.824;18.982;2023-12-29T11:15:16;3.30;99.90
40077;DHT22;25777;47.824;18.982;2023-12-29T11:17:43;3.30;99.90
40077;DHT22;25777;47.824;18.982;2023-12-29T11:20:16;3.40;99.90
40077;DHT22;25777;47.824;18.982;2023-12-29T11:22:43;3.30;99.90
40077;DHT22;25777;47.824;18.982;2023-12-29T11:25:12;3.30;99.90
40077;DHT22;25777;47.824;18.982;2023-12-29T11:27:38;3.20;99.90
40077;DHT22;25777;47.824;18.982;2023-12-29T11:30:04;2.90;99.90
40077;DHT22;25777;47.824;18.982;2023-12-29T11:32:42;2.90;99.90
40077;DHT22;25777;47.824;18.982;2023-12-29T11:35:20;3.00;99.90
40077;DHT22;25777;47.824;18.982;2023-12-29T11:40:41;3.20;99.90
40077;DHT22;25777;47.824;18.982;2023-12-29T11:43:12;3.10;99.90
40077;DHT22;25777;47.824;18.982;2023-12-29T11:45:40;3.20;99.90
40077;DHT22;25777;47.824;18.982;2023-12-29T11:48:06;3.30;99.90
40077;DHT22;25777;47.824;18.982;2023-12-29T11:50:33;3.30;99.90
40077;DHT22;25777;47.824;18.982;2023-12-29T11:53:00;3.30;99.90
40077;DHT22;25777;47.824;18.982;2023-12-29T11:55:36;3.30;99.90
40077;DHT22;25777;47.824;18.982;2023-12-29T12:00:48;3.30;99.90
40077;DHT22;25777;47.824;18.982;2023-12-29T12:03:19;3.10;99.90
40077;DHT22;25777;47.824;18.982;2023-12-29T12:05:49;3.10;99.90
40077;DHT22;25777;47.824;18.982;2023-12-29T12:08:27;3.10;99.90
40077;DHT22;25777;47.824;18.982;2023-12-29T12:10:54;3.20;99.90
40077;DHT22;25777;47.824;18.982;2023-12-29T12:13:42;3.20;99.90
40077;DHT22;25777;47.824;18.982;2023-12-29T12:16:10;3.30;99.90
40077;DHT22;25777;47.824;18.982;2023-12-29T12:18:55;3.30;99.90
40077;DHT22;25777;47.824;18.982;2023-12-29T12:21:24;3.30;99.90
40077;DHT22;25777;47.824;18.982;2023-12-29T12:23:51;3.30;99.90
40077;DHT22;25777;47.824;18.982;2023-12-29T12:26:35;3.20;99.90
40077;DHT22;25777;47.824;18.982;2023-12-29T12:29:01;3.10;99.90
40077;DHT22;25777;47.824;18.982;2023-12-29T12:31:27;3.00;99.90
40077;DHT22;25777;47.824;18.982;2023-12-29T12:33:57;2.90;99.90
40077;DHT22;25777;47.824;18.982;2023-12-29T12:36:24;2.90;99.90
40077;DHT22;25777;47.824;18.982;2023-12-29T12:38:56;2.90;99.90
40077;DHT22;25777;47.824;18.982;2023-12-29T12:41:23;2.90;99.90
40077;DHT22;25777;47.824;18.982;2023-12-29T12:44:10;2.80;99.90
40077;DHT22;25777;47.824;18.982;2023-12-29T12:46:56;2.90;99.90
40077;DHT22;25777;47.824;18.982;2023-12-29T12:49:23;3.00;99.90
40077;DHT22;25777;47.824;18.982;2023-12-29T12:51:49;3.10;99.90
40077;DHT22;25777;47.824;18.982;2023-12-29T12:54:19;3.20;99.90
40077;DHT22;25777;47.824;18.982;2023-12-29T12:56:46;3.20;99.90
40077;DHT22;25777;47.824;18.982;2023-12-29T12:59:13;3.30;99.90
40077;DHT22;25777;47.824;18.982;2023-12-29T13:01:40;3.40;99.90
40077;DHT22;25777;47.824;18.982;2023-12-29T13:04:07;3.40;99.90
40077;DHT22;25777;47.824;18.982;2023-12-29T13:06:34;3.40;99.90
40077;DHT22;25777;47.824;18.982;2023-12-29T13:09:05;3.60;99.90
40077;DHT22;25777;47.824;18.982;2023-12-29T13:11:37;3.50;99.90
40077;DHT22;25777;47.824;18.982;2023-12-29T13:14:03;3.50;99.90
40077;DHT22;25777;47.824;18.982;2023-12-29T13:18:56;3.30;99.90
40077;DHT22;25777;47.824;18.982;2023-12-29T13:21:22;3.40;99.90
40077;DHT22;25777;47.824;18.982;2023-12-29T13:23:48;3.40;99.90
40077;DHT22;25777;47.824;18.982;2023-12-29T13:26:14;3.30;99.90
40077;DHT22;25777;47.824;18.982;2023-12-29T13:28:43;3.30;99.90
40077;DHT22;25777;47.824;18.982;2023-12-29T13:31:12;3.30;99.90
40077;DHT22;25777;47.824;18.982;2023-12-29T13:33:46;3.40;99.90
40077;DHT22;25777;47.824;18.982;2023-12-29T13:36:32;3.40;99.90
40077;DHT22;25777;47.824;18.982;2023-12-29T13:39:09;3.40;99.90
40077;DHT22;25777;47.824;18.982;2023-12-29T13:41:36;3.50;99.90
40077;DHT22;25777;47.824;18.982;2023-12-29T13:44:03;3.50;99.90
40077;DHT22;25777;47.824;18.982;2023-12-29T13:46:29;3.60;99.90
40077;DHT22;25777;47.824;18.982;2023-12-29T13:48:56;3.60;99.90
40077;DHT22;25777;47.824;18.982;2023-12-29T13:51:26;3.60;99.90
40077;DHT22;25777;47.824;18.982;2023-12-29T13:53:59;3.50;99.90
40077;DHT22;25777;47.824;18.982;2023-12-29T13:56:25;3.50;99.90
40077;DHT22;25777;47.824;18.982;2023-12-29T13:58:54;3.60;99.90
40077;DHT22;25777;47.824;18.982;2023-12-29T14:01:20;3.50;99.90
40077;DHT22;25777;47.824;18.982;2023-12-29T14:03:51;3.50;99.90
40077;DHT22;25777;47.824;18.982;2023-12-29T14:06:22;3.50;99.90
40077;DHT22;25777;47.824;18.982;2023-12-29T14:08:53;3.40;99.90
40077;DHT22;25777;47.824;18.982;2023-12-29T14:11:19;3.40;99.90
40077;DHT22;25777;47.824;18.982;2023-12-29T14:13:45;3.50;99.90
40077;DHT22;25777;47.824;18.982;2023-12-29T14:16:13;3.50;99.90
40077;DHT22;25777;47.824;18.982;2023-12-29T14:21:27;3.60;99.90
40077;DHT22;25777;47.824;18.982;2023-12-29T14:24:08;3.60;99.90
40077;DHT22;25777;47.824;18.982;2023-12-29T14:26:55;3.60;99.90
40077;DHT22;25777;47.824;18.982;2023-12-29T14:29:41;3.50;99.90
40077;DHT22;25777;47.824;18.982;2023-12-29T14:32:07;3.50;99.90
40077;DHT22;25777;47.824;18.982;2023-12-29T14:34:33;3.60;99.90
40077;DHT22;25777;47.824;18.982;2023-12-29T14:37:01;3.60;99.90
40077;DHT22;25777;47.824;18.982;2023-12-29T14:39:27;3.60;99.90
40077;DHT22;25777;47.824;18.982;2023-12-29T14:41:52;3.70;99.90
40077;DHT22;25777;47.824;18.982;2023-12-29T14:44:18;3.70;99.90
40077;DHT22;25777;47.824;18.982;2023-12-29T14:46:44;3.70;99.90
40077;DHT22;25777;47.824;18.982;2023-12-29T14:49:10;3.70;99.90
40077;DHT22;25777;47.824;18.982;2023-12-29T14:51:36;3.70;99.90
40077;DHT22;25777;47.824;18.982;2023-12-29T14:54:02;3.70;99.90
40077;DHT22;25777;47.824;18.982;2023-12-29T14:56:30;3.70;99.90
40077;DHT22;25777;47.824;18.982;2023-12-29T14:58:56;3.80;99.90
40077;DHT22;25777;47.824;18.982;2023-12-29T15:01:22;3.80;99.90
40077;DHT22;25777;47.824;18.982;2023-12-29T15:03:48;3.80;99.90
40077;DHT22;25777;47.824;18.982;2023-12-29T15:06:14;3.80;99.90
40077;DHT22;25777;47.824;18.982;2023-12-29T15:08:41;3.80;99.90
40077;DHT22;25777;47.824;18.982;2023-12-29T15:11:07;3.70;99.90
40077;DHT22;25777;47.824;18.982;2023-12-29T15:13:34;3.70;99.90
40077;DHT22;25777;47.824;18.982;2023-12-29T15:16:02;3.70;99.90
40077;DHT22;25777;47.824;18.982;2023-12-29T15:18:29;3.80;99.90
40077;DHT22;25777;47.824;18.982;2023-12-29T15:20:56;3.80;99.90
40077;DHT22;25777;47.824;18.982;2023-12-29T15:23:22;3.80;99.90
40077;DHT22;25777;47.824;18.982;2023-12-29T15:25:50;3.80;99.90
40077;DHT22;25777;47.824;18.982;2023-12-29T15:28:17;3.80;99.90
40077;DHT22;25777;47.824;18.982;2023-12-29T15:30:48;3.70;99.90
40077;DHT22;25777;47.824;18.982;2023-12-29T15:33:16;3.70;99.90
40077;DHT22;25777;47.824;18.982;2023-12-29T15:35:43;3.60;99.90
40077;DHT22;25777;47.824;18.982;2023-12-29T15:38:09;3.50;99.90
40077;DHT22;25777;47.824;18.982;2023-12-29T15:40:35;3.50;99.90
40077;DHT22;25777;47.824;18.982;2023-12-29T15:43:01;3.50;99.90
40077;DHT22;25777;47.824;18.982;2023-12-29T15:45:30;3.50;99.90
40077;DHT22;25777;47.824;18.982;2023-12-29T15:47:56;3.50;99.90